createdAt,value
2016-04-25T00:00:10.075Z,1005.16
2016-04-25T00:00:52.966Z,1005.14
2016-04-25T00:01:35.062Z,1005.16
2016-04-25T00:02:17.971Z,1005.1
2016-04-25T00:03:00.848Z,1005.12
2016-04-25T00:03:43.738Z,1005.15
2016-04-25T00:04:26.648Z,1005.11
2016-04-25T00:05:09.558Z,1005.11
2016-04-25T00:05:52.464Z,1005.12
2016-04-25T00:06:35.372Z,1005.16
2016-04-25T00:07:18.265Z,1005.09
2016-04-25T00:08:01.159Z,1005.08
2016-04-25T00:08:44.080Z,1005.06
2016-04-25T00:09:27.004Z,1005.09
2016-04-25T00:10:09.899Z,1005.1
2016-04-25T00:10:52.805Z,1005.12
2016-04-25T00:11:34.918Z,1005.06
2016-04-25T00:12:18.091Z,1005.07
2016-04-25T00:13:01.437Z,1005.08
2016-04-25T00:13:44.172Z,1005.08
2016-04-25T00:14:27.081Z,1005.06
2016-04-25T00:15:09.974Z,1005.09
2016-04-25T00:15:52.865Z,1005.14
2016-04-25T00:16:35.759Z,1005.1
2016-04-25T00:17:18.652Z,1005.08
2016-04-25T00:18:01.545Z,1005.06
2016-04-25T00:18:44.451Z,1005.09
2016-04-25T00:19:27.344Z,1005.04
2016-04-25T00:20:10.253Z,1005.04
2016-04-25T00:20:53.144Z,1005.07
2016-04-25T00:21:36.054Z,1005.06
2016-04-25T00:22:18.858Z,1005.06
2016-04-25T00:23:01.454Z,1005.03
2016-04-25T00:23:44.329Z,1005.1
2016-04-25T00:24:27.254Z,1005.03
2016-04-25T00:25:10.132Z,1005.04
2016-04-25T00:25:53.054Z,1005.04
2016-04-25T00:26:35.962Z,1005.02
2016-04-25T00:27:18.856Z,1004.97
2016-04-25T00:28:02.421Z,1005
2016-04-25T00:28:45.250Z,1005.04
2016-04-25T00:29:28.142Z,1004.97
2016-04-25T00:30:11.068Z,1005.01
2016-04-25T00:30:53.959Z,1005
2016-04-25T00:31:36.851Z,1004.97
2016-04-25T00:32:19.776Z,1005
2016-04-25T00:33:02.639Z,1005
2016-04-25T00:33:45.529Z,1005.02
2016-04-25T00:34:28.437Z,1004.99
2016-04-25T00:35:11.362Z,1005.01
2016-04-25T00:35:53.456Z,1005.02
2016-04-25T00:36:40.427Z,1005.02
2016-04-25T00:37:23.384Z,1005.01
2016-04-25T00:38:06.323Z,1005
2016-04-25T00:38:49.277Z,1005.04
2016-04-25T00:39:32.233Z,1005.01
2016-04-25T00:40:15.172Z,1005
2016-04-25T00:40:58.128Z,1004.99
2016-04-25T00:41:40.941Z,1005.01
2016-04-25T00:42:23.990Z,1005
2016-04-25T00:43:06.853Z,1004.96
2016-04-25T00:43:50.041Z,1004.96
2016-04-25T00:44:32.980Z,1004.95
2016-04-25T00:45:15.921Z,1004.98
2016-04-25T00:45:58.876Z,1004.96
2016-04-25T00:46:41.829Z,1004.93
2016-04-25T00:47:24.770Z,1004.94
2016-04-25T00:48:07.694Z,1004.93
2016-04-25T00:48:50.616Z,1004.93
2016-04-25T00:49:33.572Z,1004.93
2016-04-25T00:50:16.496Z,1004.92
2016-04-25T00:50:59.530Z,1004.93
2016-04-25T00:51:42.499Z,1004.92
2016-04-25T00:52:25.439Z,1004.92
2016-04-25T00:53:08.364Z,1004.87
2016-04-25T00:53:51.318Z,1004.9
2016-04-25T00:54:34.273Z,1004.88
2016-04-25T00:55:17.213Z,1004.88
2016-04-25T00:56:00.184Z,1004.88
2016-04-25T00:56:43.121Z,1004.87
2016-04-25T00:57:26.563Z,1004.83
2016-04-25T00:58:09.174Z,1004.83
2016-04-25T00:58:51.987Z,1004.83
2016-04-25T00:59:34.943Z,1004.85
2016-04-25T01:00:17.882Z,1004.84
2016-04-25T01:01:00.838Z,1004.85
2016-04-25T01:01:43.775Z,1004.85
2016-04-25T01:02:26.731Z,1004.82
2016-04-25T01:03:09.688Z,1004.82
2016-04-25T01:03:52.641Z,1004.79
2016-04-25T01:04:35.565Z,1004.81
2016-04-25T01:05:18.506Z,1004.78
2016-04-25T01:06:01.461Z,1004.77
2016-04-25T01:06:44.414Z,1004.81
2016-04-25T01:07:27.370Z,1004.77
2016-04-25T01:08:10.295Z,1004.81
2016-04-25T01:08:53.248Z,1004.81
2016-04-25T01:09:36.173Z,1004.84
2016-04-25T01:10:19.113Z,1004.84
2016-04-25T01:11:02.052Z,1004.83
2016-04-25T01:11:45.021Z,1004.85
2016-04-25T01:12:28.383Z,1004.88
2016-04-25T01:13:11.808Z,1004.83
2016-04-25T01:13:54.730Z,1004.87
2016-04-25T01:14:37.686Z,1004.85
2016-04-25T01:15:20.626Z,1004.85
2016-04-25T01:16:03.582Z,1004.83
2016-04-25T01:16:46.519Z,1004.83
2016-04-25T01:17:29.288Z,1004.8
2016-04-25T01:18:12.244Z,1004.81
2016-04-25T01:18:55.197Z,1004.79
2016-04-25T01:19:38.137Z,1004.8
2016-04-25T01:20:21.093Z,1004.8
2016-04-25T01:21:04.017Z,1004.79
2016-04-25T01:21:46.970Z,1004.8
2016-04-25T01:22:29.927Z,1004.78
2016-04-25T01:23:12.866Z,1004.79
2016-04-25T01:23:55.819Z,1004.77
2016-04-25T01:24:38.759Z,1004.79
2016-04-25T01:25:21.699Z,1004.75
2016-04-25T01:26:04.640Z,1004.75
2016-04-25T01:26:47.577Z,1004.78
2016-04-25T01:27:30.237Z,1004.73
2016-04-25T01:28:14.193Z,1004.74
2016-04-25T01:28:57.130Z,1004.79
2016-04-25T01:29:40.070Z,1004.79
2016-04-25T01:30:22.995Z,1004.75
2016-04-25T01:31:05.951Z,1004.78
2016-04-25T01:31:48.888Z,1004.75
2016-04-25T01:32:31.828Z,1004.77
2016-04-25T01:33:14.800Z,1004.77
2016-04-25T01:33:57.737Z,1004.74
2016-04-25T01:34:40.693Z,1004.73
2016-04-25T01:35:23.648Z,1004.74
2016-04-25T01:36:06.573Z,1004.76
2016-04-25T01:36:49.526Z,1004.76
2016-04-25T01:37:32.482Z,1004.71
2016-04-25T01:38:15.438Z,1004.76
2016-04-25T01:38:58.266Z,1004.75
2016-04-25T01:39:41.222Z,1004.75
2016-04-25T01:40:24.178Z,1004.72
2016-04-25T01:41:07.150Z,1004.71
2016-04-25T01:41:50.103Z,1004.72
2016-04-25T01:42:34.574Z,1004.71
2016-04-25T01:43:18.982Z,1004.71
2016-04-25T01:44:01.782Z,1004.71
2016-04-25T01:44:44.704Z,1004.75
2016-04-25T01:45:27.644Z,1004.74
2016-04-25T01:46:10.585Z,1004.74
2016-04-25T01:46:53.522Z,1004.75
2016-04-25T01:47:36.478Z,1004.72
2016-04-25T01:48:19.449Z,1004.73
2016-04-25T01:49:02.374Z,1004.72
2016-04-25T01:49:45.311Z,1004.74
2016-04-25T01:50:28.267Z,1004.75
2016-04-25T01:51:11.207Z,1004.72
2016-04-25T01:51:54.129Z,1004.69
2016-04-25T01:52:36.944Z,1004.7
2016-04-25T01:53:19.869Z,1004.68
2016-04-25T01:54:02.841Z,1004.68
2016-04-25T01:54:45.763Z,1004.71
2016-04-25T01:55:28.702Z,1004.65
2016-04-25T01:56:11.643Z,1004.62
2016-04-25T01:56:54.596Z,1004.64
2016-04-25T01:57:37.520Z,1004.62
2016-04-25T01:58:21.070Z,1004.63
2016-04-25T01:59:06.057Z,1004.63
2016-04-25T01:59:49.010Z,1004.62
2016-04-25T02:00:31.965Z,1004.62
2016-04-25T02:01:14.922Z,1004.63
2016-04-25T02:01:57.860Z,1004.62
2016-04-25T02:02:40.018Z,1004.62
2016-04-25T02:03:22.818Z,1004.61
2016-04-25T02:04:05.726Z,1004.6
2016-04-25T02:04:48.773Z,1004.59
2016-04-25T02:05:31.698Z,1004.61
2016-04-25T02:06:14.654Z,1004.59
2016-04-25T02:06:57.576Z,1004.58
2016-04-25T02:07:40.517Z,1004.59
2016-04-25T02:08:23.456Z,1004.6
2016-04-25T02:09:06.397Z,1004.57
2016-04-25T02:09:49.365Z,1004.54
2016-04-25T02:10:32.305Z,1004.58
2016-04-25T02:11:15.246Z,1004.56
2016-04-25T02:11:58.199Z,1004.52
2016-04-25T02:12:41.217Z,1004.51
2016-04-25T02:13:23.860Z,1004.52
2016-04-25T02:14:07.535Z,1004.57
2016-04-25T02:14:50.488Z,1004.5
2016-04-25T02:15:33.428Z,1004.49
2016-04-25T02:16:16.384Z,1004.51
2016-04-25T02:16:59.369Z,1004.47
2016-04-25T02:17:42.293Z,1004.5
2016-04-25T02:18:25.233Z,1004.5
2016-04-25T02:19:08.204Z,1004.47
2016-04-25T02:19:51.157Z,1004.47
2016-04-25T02:20:34.097Z,1004.48
2016-04-25T02:21:17.070Z,1004.47
2016-04-25T02:21:59.992Z,1004.46
2016-04-25T02:22:42.947Z,1004.47
2016-04-25T02:23:25.918Z,1004.43
2016-04-25T02:24:08.874Z,1004.43
2016-04-25T02:24:51.812Z,1004.45
2016-04-25T02:25:34.735Z,1004.47
2016-04-25T02:26:17.693Z,1004.46
2016-04-25T02:27:00.630Z,1004.45
2016-04-25T02:27:44.571Z,1004.45
2016-04-25T02:28:27.884Z,1004.4
2016-04-25T02:29:10.544Z,1004.45
2016-04-25T02:29:53.497Z,1004.52
2016-04-25T02:30:36.437Z,1004.46
2016-04-25T02:31:19.393Z,1004.46
2016-04-25T02:32:02.318Z,1004.44
2016-04-25T02:32:45.271Z,1004.42
2016-04-25T02:33:28.212Z,1004.38
2016-04-25T02:34:11.168Z,1004.42
2016-04-25T02:34:54.121Z,1004.42
2016-04-25T02:35:37.045Z,1004.45
2016-04-25T02:36:20.000Z,1004.42
2016-04-25T02:37:02.925Z,1004.44
2016-04-25T02:37:45.862Z,1004.47
2016-04-25T02:38:28.802Z,1004.43
2016-04-25T02:39:11.758Z,1004.43
2016-04-25T02:39:54.695Z,1004.43
2016-04-25T02:40:37.637Z,1004.42
2016-04-25T02:41:20.592Z,1004.38
2016-04-25T02:42:03.532Z,1004.4
2016-04-25T02:42:46.470Z,1004.38
2016-04-25T02:43:30.409Z,1004.35
2016-04-25T02:44:14.069Z,1004.32
2016-04-25T02:44:57.022Z,1004.33
2016-04-25T02:45:39.947Z,1004.31
2016-04-25T02:46:22.903Z,1004.33
2016-04-25T02:47:05.842Z,1004.3
2016-04-25T02:47:48.795Z,1004.28
2016-04-25T02:48:31.736Z,1004.27
2016-04-25T02:49:14.692Z,1004.28
2016-04-25T02:49:57.630Z,1004.27
2016-04-25T02:50:40.647Z,1004.25
2016-04-25T02:51:23.572Z,1004.24
2016-04-25T02:52:06.528Z,1004.2
2016-04-25T02:52:49.481Z,1004.23
2016-04-25T02:53:32.421Z,1004.23
2016-04-25T02:54:15.346Z,1004.23
2016-04-25T02:54:58.330Z,1004.21
2016-04-25T02:55:41.301Z,1004.21
2016-04-25T02:56:24.242Z,1004.22
2016-04-25T02:57:07.182Z,1004.26
2016-04-25T02:57:50.119Z,1004.23
2016-04-25T02:58:33.029Z,1004.22
2016-04-25T02:59:15.719Z,1004.21
2016-04-25T02:59:58.672Z,1004.21
2016-04-25T03:00:41.627Z,1004.17
2016-04-25T03:01:24.568Z,1004.18
2016-04-25T03:02:07.523Z,1004.17
2016-04-25T03:02:50.460Z,1004.18
2016-04-25T03:03:33.386Z,1004.19
2016-04-25T03:04:16.326Z,1004.21
2016-04-25T03:04:59.279Z,1004.17
2016-04-25T03:05:42.203Z,1004.17
2016-04-25T03:06:25.160Z,1004.17
2016-04-25T03:07:08.146Z,1004.16
2016-04-25T03:07:51.099Z,1004.16
2016-04-25T03:08:34.023Z,1004.14
2016-04-25T03:09:16.964Z,1004.16
2016-04-25T03:09:59.901Z,1004.17
2016-04-25T03:10:42.842Z,1004.16
2016-04-25T03:11:25.814Z,1004.13
2016-04-25T03:12:08.753Z,1004.14
2016-04-25T03:12:51.691Z,1004.15
2016-04-25T03:13:35.162Z,1004.17
2016-04-25T03:14:18.243Z,1004.12
2016-04-25T03:15:01.181Z,1004.15
2016-04-25T03:15:44.120Z,1004.16
2016-04-25T03:16:25.483Z,1004.16
2016-04-25T03:17:08.455Z,1004.11
2016-04-25T03:17:51.392Z,1004.15
2016-04-25T03:18:34.332Z,1004.15
2016-04-25T03:19:17.273Z,1004.15
2016-04-25T03:20:00.211Z,1004.15
2016-04-25T03:20:43.166Z,1004.15
2016-04-25T03:21:26.090Z,1004.2
2016-04-25T03:22:09.046Z,1004.14
2016-04-25T03:22:51.983Z,1004.15
2016-04-25T03:23:34.924Z,1004.16
2016-04-25T03:24:17.879Z,1004.14
2016-04-25T03:25:00.801Z,1004.12
2016-04-25T03:25:43.757Z,1004.12
2016-04-25T03:26:26.697Z,1004.11
2016-04-25T03:27:09.653Z,1004.11
2016-04-25T03:27:52.607Z,1004.09
2016-04-25T03:28:36.718Z,1004.15
2016-04-25T03:29:20.158Z,1004.11
2016-04-25T03:30:03.080Z,1004.1
2016-04-25T03:30:46.020Z,1004.07
2016-04-25T03:31:28.992Z,1004.11
2016-04-25T03:32:11.917Z,1004.11
2016-04-25T03:32:54.886Z,1004.14
2016-04-25T03:33:37.825Z,1004.11
2016-04-25T03:34:20.797Z,1004.1
2016-04-25T03:35:03.719Z,1004.14
2016-04-25T03:35:46.659Z,1004.11
2016-04-25T03:36:29.584Z,1004.12
2016-04-25T03:37:12.555Z,1004.08
2016-04-25T03:37:55.493Z,1004.11
2016-04-25T03:38:38.448Z,1004.05
2016-04-25T03:39:21.232Z,1004.05
2016-04-25T03:40:04.185Z,1004.04
2016-04-25T03:40:47.125Z,1004.03
2016-04-25T03:41:30.065Z,1004
2016-04-25T03:42:13.022Z,1004.03
2016-04-25T03:42:55.943Z,1004.02
2016-04-25T03:43:38.321Z,1004.01
2016-04-25T03:44:21.089Z,1003.99
2016-04-25T03:45:04.027Z,1004
2016-04-25T03:45:46.998Z,1004.01
2016-04-25T03:46:29.939Z,1003.95
2016-04-25T03:47:12.864Z,1003.96
2016-04-25T03:47:55.801Z,1003.97
2016-04-25T03:48:38.756Z,1003.93
2016-04-25T03:49:21.681Z,1003.95
2016-04-25T03:50:04.634Z,1003.95
2016-04-25T03:50:47.559Z,1003.91
2016-04-25T03:51:30.514Z,1003.86
2016-04-25T03:52:13.455Z,1003.84
2016-04-25T03:52:56.377Z,1003.88
2016-04-25T03:53:39.333Z,1003.84
2016-04-25T03:54:22.288Z,1003.84
2016-04-25T03:55:05.210Z,1003.84
2016-04-25T03:55:48.150Z,1003.85
2016-04-25T03:56:31.091Z,1003.82
2016-04-25T03:57:14.016Z,1003.86
2016-04-25T03:57:56.953Z,1003.81
2016-04-25T03:58:39.877Z,1003.81
2016-04-25T03:59:24.129Z,1003.84
2016-04-25T04:00:07.067Z,1003.79
2016-04-25T04:00:50.023Z,1003.81
2016-04-25T04:01:32.980Z,1003.81
2016-04-25T04:02:15.904Z,1003.84
2016-04-25T04:02:58.857Z,1003.83
2016-04-25T04:03:41.828Z,1003.79
2016-04-25T04:04:24.752Z,1003.8
2016-04-25T04:05:07.674Z,1003.84
2016-04-25T04:05:50.630Z,1003.83
2016-04-25T04:06:33.571Z,1003.86
2016-04-25T04:07:16.510Z,1003.85
2016-04-25T04:07:59.464Z,1003.84
2016-04-25T04:08:42.388Z,1003.85
2016-04-25T04:09:25.345Z,1003.87
2016-04-25T04:10:08.282Z,1003.87
2016-04-25T04:10:51.269Z,1003.86
2016-04-25T04:11:34.068Z,1003.84
2016-04-25T04:12:17.023Z,1003.85
2016-04-25T04:12:59.961Z,1003.88
2016-04-25T04:13:43.886Z,1003.84
2016-04-25T04:14:27.077Z,1003.84
2016-04-25T04:15:09.734Z,1003.85
2016-04-25T04:15:52.673Z,1003.87
2016-04-25T04:16:35.614Z,1003.84
2016-04-25T04:17:18.537Z,1003.86
2016-04-25T04:18:01.491Z,1003.8
2016-04-25T04:18:44.447Z,1003.81
2016-04-25T04:19:27.372Z,1003.82
2016-04-25T04:20:10.309Z,1003.81
2016-04-25T04:20:53.264Z,1003.82
2016-04-25T04:21:36.190Z,1003.8
2016-04-25T04:22:18.864Z,1003.82
2016-04-25T04:23:01.505Z,1003.83
2016-04-25T04:23:44.429Z,1003.81
2016-04-25T04:24:27.353Z,1003.86
2016-04-25T04:25:10.291Z,1003.83
2016-04-25T04:25:53.231Z,1003.84
2016-04-25T04:26:36.186Z,1003.82
2016-04-25T04:27:19.144Z,1003.8
2016-04-25T04:28:02.112Z,1003.79
2016-04-25T04:28:46.021Z,1003.79
2016-04-25T04:29:30.305Z,1003.77
2016-04-25T04:30:13.260Z,1003.77
2016-04-25T04:30:56.213Z,1003.78
2016-04-25T04:31:39.185Z,1003.77
2016-04-25T04:32:22.109Z,1003.83
2016-04-25T04:33:05.077Z,1003.75
2016-04-25T04:33:48.003Z,1003.78
2016-04-25T04:34:30.990Z,1003.81
2016-04-25T04:35:13.946Z,1003.75
2016-04-25T04:35:56.883Z,1003.83
2016-04-25T04:36:39.838Z,1003.8
2016-04-25T04:37:22.779Z,1003.76
2016-04-25T04:38:05.748Z,1003.77
2016-04-25T04:38:48.688Z,1003.75
2016-04-25T04:39:31.643Z,1003.85
2016-04-25T04:40:14.568Z,1003.76
2016-04-25T04:40:57.521Z,1003.79
2016-04-25T04:41:40.462Z,1003.85
2016-04-25T04:42:23.402Z,1003.8
2016-04-25T04:43:06.355Z,1003.77
2016-04-25T04:43:49.498Z,1003.76
2016-04-25T04:44:32.282Z,1003.78
2016-04-25T04:45:15.237Z,1003.76
2016-04-25T04:45:58.175Z,1003.77
2016-04-25T04:46:41.132Z,1003.8
2016-04-25T04:47:24.056Z,1003.79
2016-04-25T04:48:06.197Z,1003.78
2016-04-25T04:48:49.137Z,1003.78
2016-04-25T04:49:32.108Z,1003.82
2016-04-25T04:50:15.048Z,1003.81
2016-04-25T04:50:58.017Z,1003.77
2016-04-25T04:51:41.020Z,1003.81
2016-04-25T04:52:23.945Z,1003.81
2016-04-25T04:53:06.898Z,1003.76
2016-04-25T04:53:49.853Z,1003.76
2016-04-25T04:54:32.794Z,1003.75
2016-04-25T04:55:15.733Z,1003.73
2016-04-25T04:55:58.718Z,1003.74
2016-04-25T04:56:41.689Z,1003.7
2016-04-25T04:57:24.614Z,1003.71
2016-04-25T04:58:07.583Z,1003.7
2016-04-25T04:58:51.319Z,1003.71
2016-04-25T04:59:34.322Z,1003.65
2016-04-25T05:00:17.263Z,1003.66
2016-04-25T05:01:00.060Z,1003.66
2016-04-25T05:01:43.000Z,1003.66
2016-04-25T05:02:25.955Z,1003.7
2016-04-25T05:03:08.893Z,1003.66
2016-04-25T05:03:51.833Z,1003.67
2016-04-25T05:04:34.789Z,1003.69
2016-04-25T05:05:17.730Z,1003.68
2016-04-25T05:06:00.699Z,1003.68
2016-04-25T05:06:43.654Z,1003.7
2016-04-25T05:07:26.594Z,1003.68
2016-04-25T05:08:09.532Z,1003.67
2016-04-25T05:08:52.503Z,1003.7
2016-04-25T05:09:35.427Z,1003.67
2016-04-25T05:10:18.384Z,1003.65
2016-04-25T05:11:01.321Z,1003.65
2016-04-25T05:11:44.262Z,1003.65
2016-04-25T05:12:27.221Z,1003.62
2016-04-25T05:13:10.221Z,1003.63
2016-04-25T05:13:53.455Z,1003.64
2016-04-25T05:14:36.503Z,1003.6
2016-04-25T05:15:19.611Z,1003.62
2016-04-25T05:16:02.580Z,1003.58
2016-04-25T05:16:45.565Z,1003.57
2016-04-25T05:17:28.542Z,1003.58
2016-04-25T05:18:11.511Z,1003.64
2016-04-25T05:18:54.483Z,1003.6
2016-04-25T05:19:37.423Z,1003.58
2016-04-25T05:20:20.410Z,1003.56
2016-04-25T05:21:03.348Z,1003.53
2016-04-25T05:21:46.350Z,1003.58
2016-04-25T05:22:29.313Z,1003.52
2016-04-25T05:23:12.110Z,1003.57
2016-04-25T05:23:55.041Z,1003.52
2016-04-25T05:24:37.988Z,1003.48
2016-04-25T05:25:20.917Z,1003.5
2016-04-25T05:26:03.855Z,1003.48
2016-04-25T05:26:46.816Z,1003.5
2016-04-25T05:27:29.759Z,1003.5
2016-04-25T05:28:12.696Z,1003.54
2016-04-25T05:28:55.748Z,1003.56
2016-04-25T05:29:39.018Z,1003.54
2016-04-25T05:30:21.977Z,1003.53
2016-04-25T05:31:04.914Z,1003.54
2016-04-25T05:31:47.871Z,1003.57
2016-04-25T05:32:30.827Z,1003.55
2016-04-25T05:33:13.800Z,1003.57
2016-04-25T05:33:56.722Z,1003.59
2016-04-25T05:34:39.709Z,1003.6
2016-04-25T05:35:22.635Z,1003.56
2016-04-25T05:36:05.573Z,1003.59
2016-04-25T05:36:48.513Z,1003.58
2016-04-25T05:37:31.486Z,1003.6
2016-04-25T05:38:14.426Z,1003.51
2016-04-25T05:38:57.363Z,1003.55
2016-04-25T05:39:40.320Z,1003.53
2016-04-25T05:40:23.245Z,1003.54
2016-04-25T05:41:06.198Z,1003.54
2016-04-25T05:41:49.123Z,1003.51
2016-04-25T05:42:31.938Z,1003.51
2016-04-25T05:43:15.082Z,1003.51
2016-04-25T05:43:57.723Z,1003.57
2016-04-25T05:44:41.225Z,1003.57
2016-04-25T05:45:24.180Z,1003.48
2016-04-25T05:46:07.117Z,1003.53
2016-04-25T05:46:50.074Z,1003.51
2016-04-25T05:47:33.030Z,1003.52
2016-04-25T05:48:15.205Z,1003.42
2016-04-25T05:48:58.126Z,1003.48
2016-04-25T05:49:41.098Z,1003.5
2016-04-25T05:50:24.038Z,1003.47
2016-04-25T05:51:06.975Z,1003.4
2016-04-25T05:51:49.915Z,1003.43
2016-04-25T05:52:32.872Z,1003.43
2016-04-25T05:53:15.811Z,1003.43
2016-04-25T05:53:58.764Z,1003.46
2016-04-25T05:54:41.704Z,1003.41
2016-04-25T05:55:24.645Z,1003.47
2016-04-25T05:56:07.583Z,1003.45
2016-04-25T05:56:50.522Z,1003.43
2016-04-25T05:57:33.447Z,1003.41
2016-04-25T05:58:16.763Z,1003.48
2016-04-25T05:59:00.075Z,1003.46
2016-04-25T05:59:44.484Z,1003.41
2016-04-25T06:00:27.424Z,1003.41
2016-04-25T06:01:10.377Z,1003.37
2016-04-25T06:01:53.317Z,1003.42
2016-04-25T06:02:36.274Z,1003.38
2016-04-25T06:03:19.245Z,1003.39
2016-04-25T06:04:02.166Z,1003.43
2016-04-25T06:04:45.122Z,1003.37
2016-04-25T06:05:28.047Z,1003.37
2016-04-25T06:06:11.001Z,1003.38
2016-04-25T06:06:53.940Z,1003.37
2016-04-25T06:07:36.896Z,1003.4
2016-04-25T06:08:19.837Z,1003.36
2016-04-25T06:09:02.759Z,1003.41
2016-04-25T06:09:45.729Z,1003.28
2016-04-25T06:10:28.654Z,1003.3
2016-04-25T06:11:11.592Z,1003.27
2016-04-25T06:11:54.531Z,1003.29
2016-04-25T06:12:37.456Z,1003.26
2016-04-25T06:13:20.725Z,1003.24
2016-04-25T06:14:05.881Z,1003.24
2016-04-25T06:14:48.837Z,1003.22
2016-04-25T06:15:31.761Z,1003.25
2016-04-25T06:16:13.933Z,1003.25
2016-04-25T06:16:56.858Z,1003.2
2016-04-25T06:17:39.829Z,1003.21
2016-04-25T06:18:22.738Z,1003.23
2016-04-25T06:19:05.706Z,1003.23
2016-04-25T06:19:48.663Z,1003.19
2016-04-25T06:20:31.603Z,1003.17
2016-04-25T06:21:14.527Z,1003.17
2016-04-25T06:21:57.464Z,1003.17
2016-04-25T06:22:40.406Z,1003.2
2016-04-25T06:23:23.362Z,1003.24
2016-04-25T06:24:06.315Z,1003.25
2016-04-25T06:24:49.270Z,1003.19
2016-04-25T06:25:32.195Z,1003.21
2016-04-25T06:26:15.183Z,1003.28
2016-04-25T06:26:58.120Z,1003.22
2016-04-25T06:27:41.107Z,1003.18
2016-04-25T06:28:24.438Z,1003.24
2016-04-25T06:29:10.453Z,1003.2
2016-04-25T06:29:54.222Z,1003.21
2016-04-25T06:30:37.928Z,1003.27
2016-04-25T06:31:20.883Z,1003.18
2016-04-25T06:32:03.836Z,1003.21
2016-04-25T06:32:46.761Z,1003.22
2016-04-25T06:33:29.733Z,1003.17
2016-04-25T06:34:12.670Z,1003.14
2016-04-25T06:34:55.688Z,1003.15
2016-04-25T06:35:37.848Z,1003.16
2016-04-25T06:36:20.788Z,1003.19
2016-04-25T06:37:03.756Z,1003.15
2016-04-25T06:37:46.680Z,1003.14
2016-04-25T06:38:29.622Z,1003.12
2016-04-25T06:39:12.575Z,1003.12
2016-04-25T06:39:55.529Z,1003.07
2016-04-25T06:40:38.471Z,1003.05
2016-04-25T06:41:21.426Z,1003.04
2016-04-25T06:42:04.363Z,1003.03
2016-04-25T06:42:47.304Z,1003
2016-04-25T06:43:29.931Z,1002.99
2016-04-25T06:44:14.071Z,1003
2016-04-25T06:44:56.888Z,1002.99
2016-04-25T06:45:39.827Z,1003.07
2016-04-25T06:46:22.799Z,1003
2016-04-25T06:47:05.721Z,1003.06
2016-04-25T06:47:48.676Z,1003.01
2016-04-25T06:48:31.633Z,1002.96
2016-04-25T06:49:14.571Z,1003.01
2016-04-25T06:49:57.509Z,1002.93
2016-04-25T06:50:40.466Z,1002.94
2016-04-25T06:51:23.406Z,1002.9
2016-04-25T06:52:06.343Z,1002.94
2016-04-25T06:52:49.299Z,1002.95
2016-04-25T06:53:32.223Z,1002.94
2016-04-25T06:54:15.176Z,1002.93
2016-04-25T06:54:58.118Z,1002.89
2016-04-25T06:55:41.089Z,1002.93
2016-04-25T06:56:24.060Z,1002.91
2016-04-25T06:57:06.998Z,1002.94
2016-04-25T06:57:49.937Z,1002.89
2016-04-25T06:58:33.503Z,1002.85
2016-04-25T06:59:16.550Z,1002.89
2016-04-25T07:00:00.225Z,1002.84
2016-04-25T07:00:43.181Z,1002.85
2016-04-25T07:01:26.120Z,1002.82
2016-04-25T07:02:09.058Z,1002.82
2016-04-25T07:02:51.247Z,1002.85
2016-04-25T07:03:34.172Z,1002.86
2016-04-25T07:04:17.125Z,1002.8
2016-04-25T07:05:00.128Z,1002.78
2016-04-25T07:05:43.084Z,1002.8
2016-04-25T07:06:26.009Z,1002.82
2016-04-25T07:07:08.947Z,1002.75
2016-04-25T07:07:51.933Z,1002.74
2016-04-25T07:08:34.889Z,1002.71
2016-04-25T07:09:17.830Z,1002.7
2016-04-25T07:10:00.767Z,1002.7
2016-04-25T07:10:43.707Z,1002.65
2016-04-25T07:11:26.647Z,1002.68
2016-04-25T07:12:09.585Z,1002.64
2016-04-25T07:12:52.572Z,1002.64
2016-04-25T07:13:35.496Z,1002.6
2016-04-25T07:14:18.452Z,1002.64
2016-04-25T07:15:02.233Z,1002.6
2016-04-25T07:15:45.190Z,1002.57
2016-04-25T07:16:28.113Z,1002.63
2016-04-25T07:17:11.067Z,1002.6
2016-04-25T07:17:54.023Z,1002.58
2016-04-25T07:18:36.979Z,1002.6
2016-04-25T07:19:19.919Z,1002.64
2016-04-25T07:20:02.857Z,1002.59
2016-04-25T07:20:45.781Z,1002.61
2016-04-25T07:21:28.752Z,1002.59
2016-04-25T07:22:11.721Z,1002.57
2016-04-25T07:22:57.145Z,1002.53
2016-04-25T07:23:40.164Z,1002.54
2016-04-25T07:24:23.135Z,1002.61
2016-04-25T07:25:06.089Z,1002.55
2016-04-25T07:25:49.060Z,1002.5
2016-04-25T07:26:32.000Z,1002.52
2016-04-25T07:27:14.953Z,1002.5
2016-04-25T07:28:01.159Z,1002.49
2016-04-25T07:28:44.881Z,1002.53
2016-04-25T07:29:28.648Z,1002.52
2016-04-25T07:30:11.680Z,1002.52
2016-04-25T07:30:54.620Z,1002.56
2016-04-25T07:31:37.561Z,1002.58
2016-04-25T07:32:20.517Z,1002.58
2016-04-25T07:33:03.314Z,1002.53
2016-04-25T07:33:46.269Z,1002.55
2016-04-25T07:34:29.241Z,1002.49
2016-04-25T07:35:12.194Z,1002.51
2016-04-25T07:35:55.150Z,1002.53
2016-04-25T07:36:38.089Z,1002.51
2016-04-25T07:37:21.030Z,1002.48
2016-04-25T07:38:06.983Z,1002.59
2016-04-25T07:38:49.922Z,1002.48
2016-04-25T07:39:32.880Z,1002.42
2016-04-25T07:40:15.817Z,1002.49
2016-04-25T07:40:58.757Z,1002.46
2016-04-25T07:41:41.728Z,1002.46
2016-04-25T07:42:25.105Z,1002.6
2016-04-25T07:43:11.137Z,1002.58
2016-04-25T07:43:53.546Z,1002.44
2016-04-25T07:44:36.251Z,1002.37
2016-04-25T07:45:19.204Z,1002.45
2016-04-25T07:46:02.177Z,1002.43
2016-04-25T07:46:45.132Z,1002.39
2016-04-25T07:47:28.072Z,1002.36
2016-04-25T07:48:12.197Z,1002.39
2016-04-25T07:48:55.153Z,1002.31
2016-04-25T07:49:38.109Z,1002.3
2016-04-25T07:50:21.034Z,1002.33
2016-04-25T07:51:04.002Z,1002.31
2016-04-25T07:51:46.942Z,1002.23
2016-04-25T07:52:33.102Z,1002.34
2016-04-25T07:53:16.071Z,1002.24
2016-04-25T07:53:59.042Z,1002.25
2016-04-25T07:54:41.982Z,1002.36
2016-04-25T07:55:24.938Z,1002.29
2016-04-25T07:56:07.907Z,1002.28
2016-04-25T07:56:50.878Z,1002.28
2016-04-25T07:57:33.833Z,1002.29
2016-04-25T07:58:16.786Z,1002.28
2016-04-25T07:58:59.196Z,1002.25
2016-04-25T07:59:42.776Z,1002.23
2016-04-25T08:00:25.717Z,1002.21
2016-04-25T08:01:08.686Z,1002.21
2016-04-25T08:01:51.610Z,1002.2
2016-04-25T08:02:36.144Z,1002.23
2016-04-25T08:03:18.941Z,1002.2
2016-04-25T08:04:01.881Z,1002.22
2016-04-25T08:04:44.665Z,1002.29
2016-04-25T08:05:27.620Z,1002.46
2016-04-25T08:06:10.558Z,1002.17
2016-04-25T08:06:53.530Z,1002.26
2016-04-25T08:07:36.486Z,1002.23
2016-04-25T08:08:19.455Z,1002.09
2016-04-25T08:09:02.394Z,1002.13
2016-04-25T08:09:45.335Z,1002.05
2016-04-25T08:10:28.291Z,1002.19
2016-04-25T08:11:11.244Z,1002.07
2016-04-25T08:11:54.216Z,1002.1
2016-04-25T08:12:37.133Z,1002.1
2016-04-25T08:13:20.305Z,1002.11
2016-04-25T08:14:03.542Z,1002.01
2016-04-25T08:14:46.623Z,1001.95
2016-04-25T08:15:29.984Z,1001.94
2016-04-25T08:16:12.938Z,1001.96
2016-04-25T08:16:55.877Z,1001.95
2016-04-25T08:17:38.834Z,1001.94
2016-04-25T08:18:21.787Z,1001.91
2016-04-25T08:19:04.758Z,1001.98
2016-04-25T08:19:47.730Z,1001.93
2016-04-25T08:20:30.685Z,1001.85
2016-04-25T08:21:13.638Z,1001.83
2016-04-25T08:21:56.594Z,1001.9
2016-04-25T08:22:39.551Z,1001.92
2016-04-25T08:23:22.504Z,1001.83
2016-04-25T08:24:05.460Z,1001.85
2016-04-25T08:24:48.431Z,1001.72
2016-04-25T08:25:31.387Z,1001.85
2016-04-25T08:26:14.403Z,1001.82
2016-04-25T08:26:57.343Z,1001.81
2016-04-25T08:27:40.283Z,1001.72
2016-04-25T08:28:23.252Z,1001.8
2016-04-25T08:29:07.864Z,1001.75
2016-04-25T08:29:50.867Z,1001.77
2016-04-25T08:30:33.823Z,1001.81
2016-04-25T08:31:16.776Z,1001.77
2016-04-25T08:31:59.731Z,1001.85
2016-04-25T08:32:42.672Z,1001.82
2016-04-25T08:33:25.627Z,1001.73
2016-04-25T08:34:08.565Z,1001.7
2016-04-25T08:34:54.053Z,1001.82
2016-04-25T08:35:37.039Z,1001.73
2016-04-25T08:36:19.992Z,1001.74
2016-04-25T08:37:02.949Z,1001.78
2016-04-25T08:37:45.919Z,1001.67
2016-04-25T08:38:28.891Z,1001.67
2016-04-25T08:39:11.813Z,1001.66
2016-04-25T08:39:54.769Z,1001.62
2016-04-25T08:40:37.713Z,1001.66
2016-04-25T08:41:20.667Z,1001.65
2016-04-25T08:42:03.638Z,1001.56